Startpagina
METAR-TAF:

METAR-TAF

Vliegvelden :

Zeltweg Luchthaven Circuit

Zeltweg, Oostenrijk

breedte: 47-12N, lengte: 014-45E, hoogte: 677 m

Actueel weer

Dit bericht is 33 minuten geleden gemaakt, om 13:50 UTC
Wind 4 kt uit het oostzuidoosten
Temperatuur 27°C
Vochtigheid 34%
Druk 1020 hPa

METAR: LOXZ 181350Z 11004KT 40KM FEW060CU BKN070SC 27/10 Q1020 NOSIG

Tijdstip: 16:23 (14:23 UTC)

Verwachting

Dit bericht is 3 uur en het 8 minuten geleden gemaakt, om 11:15 UTC
Verwachting geldig van 18 om 12 UTC tot 18 om 21 UTC
Wind 3 kt uit variabele richting
Zicht 10 km of meer
Weinig wolken op 8000 ft
Tijdelijke
van 18 om 12 UTC tot 18 om 18 UTC
Wind 8 kt uit het zuidoosten
Weinig wolken op 6000 ft, Cumulonimbus.
Verspreide wolken op 7000 ft

TAF: LOXZ 181115Z 1812/1821 VRB03KT 9999 FEW080 TEMPO 1812/1818 14008KT FEW060CB SCT070

Waarnemingen en weersverwachtingen van meer dan 4000 vliegvelden (METAR en TAF).

De beschikbare stations zijn de gele en rode punten op de kaart.

Ga met uw muis naar het station om de naam te zien.

Klik dan om waarnemingen en weersverwachtingen te zien.

kaart wijzigen: klik op de groene knoppen met een zwart kruis om in te zoomen, op de groene knop met een streepje om uit te zoomen of op de groene pijlen voor aangrenzende kaarten.


METAR-TAF: